Time;durP1;ratioP1;P1;durP2;ratioP2;P2;SDS_P1;SDS_P2;PMS_P1;PMS_P2;Temp;Humidity;BMP_temperature;BMP_pressure;BME280_temperature;BME280_humidity;BME280_pressure;Samples;Min_cycle;Max_cycle;Signal;HPM_P1;HPM_P2
2022/09/18 00:01:30;;;;;;;3.83;1.50;;;10.60;99.90;;;;;;5053133;28;20185;-66
2022/09/18 00:04:00;;;;;;;1.92;1.10;;;10.60;99.90;;;;;;5052481;28;20192;-66
2022/09/18 00:06:30;;;;;;;4.22;1.52;;;10.60;99.90;;;;;;5052549;28;20549;-66
2022/09/18 00:09:01;;;;;;;6.60;1.95;;;10.60;99.90;;;;;;5053052;28;20197;-66
2022/09/18 00:11:33;;;;;;;1.42;1.08;;;10.60;99.90;;;;;;5051516;28;20215;-66
2022/09/18 00:14:01;;;;;;;10.60;1.52;;;10.60;99.90;;;;;;5050087;28;20205;-66
2022/09/18 00:16:29;;;;;;;5.40;1.60;;;10.60;99.90;;;;;;5051382;28;20208;-66
2022/09/18 00:19:01;;;;;;;1.88;1.30;;;10.60;99.90;;;;;;5052039;28;20212;-66
2022/09/18 00:21:30;;;;;;;2.05;1.40;;;10.60;99.90;;;;;;5033701;28;20570;-66
2022/09/18 00:24:01;;;;;;;5.40;1.83;;;10.60;99.90;;;;;;5032127;28;20635;-66
2022/09/18 00:26:29;;;;;;;4.35;1.40;;;10.60;99.90;;;;;;5032615;28;20185;-65
2022/09/18 00:28:58;;;;;;;3.97;1.20;;;10.60;99.90;;;;;;5048993;28;20204;-65
2022/09/18 00:31:29;;;;;;;2.22;1.67;;;10.60;99.90;;;;;;5052223;28;20208;-67
2022/09/18 00:34:17;;;;;;;1.50;1.40;;;10.60;99.90;;;;;;5044928;28;20258;-65
2022/09/18 00:36:45;;;;;;;4.15;1.45;;;10.60;99.90;;;;;;5051808;28;20566;-66
2022/09/18 00:39:15;;;;;;;5.95;1.60;;;10.50;99.90;;;;;;5052448;28;20205;-66
2022/09/18 00:41:43;;;;;;;3.67;1.55;;;10.50;99.90;;;;;;5052078;28;20204;-66
2022/09/18 00:44:34;;;;;;;2.10;1.70;;;10.50;99.90;;;;;;5052154;28;20213;-66
2022/09/18 00:47:07;;;;;;;2.67;1.42;;;10.50;99.90;;;;;;5051633;28;20189;-66
2022/09/18 00:49:38;;;;;;;7.80;1.67;;;10.50;99.90;;;;;;5047250;28;20228;-66
2022/09/18 00:52:06;;;;;;;2.45;1.48;;;10.50;99.90;;;;;;5034538;28;20571;-66
2022/09/18 00:54:38;;;;;;;5.88;1.90;;;10.50;99.90;;;;;;5052291;28;20204;-66
2022/09/18 00:57:10;;;;;;;6.13;1.90;;;10.50;99.90;;;;;;5050266;28;20232;-66
2022/09/18 00:59:42;;;;;;;9.43;1.90;;;10.50;99.90;;;;;;5050684;28;20215;-66
2022/09/18 01:02:11;;;;;;;4.25;2.15;;;10.50;99.90;;;;;;5051793;28;20212;-67
2022/09/18 01:04:39;;;;;;;9.10;2.10;;;10.50;99.90;;;;;;5052470;28;20197;-66
2022/09/18 01:07:14;;;;;;;5.55;1.65;;;10.50;99.90;;;;;;5051488;28;20667;-66
2022/09/18 01:09:54;;;;;;;2.53;1.48;;;10.50;99.90;;;;;;5051586;28;20188;-65
2022/09/18 01:12:29;;;;;;;3.33;1.70;;;10.50;99.90;;;;;;5031590;28;20208;-65
2022/09/18 01:15:05;;;;;;;8.30;2.00;;;10.50;99.90;;;;;;5038927;28;20580;-66
2022/09/18 01:17:39;;;;;;;3.38;1.90;;;10.50;99.90;;;;;;5030892;28;20679;-66
2022/09/18 01:20:46;;;;;;;3.10;1.70;;;10.50;99.90;;;;;;5045044;28;20667;-66
2022/09/18 01:23:36;;;;;;;2.92;2.03;;;10.50;99.90;;;;;;5010685;28;20212;-66
2022/09/18 01:26:18;;;;;;;2.97;1.70;;;10.50;99.90;;;;;;5050540;28;20238;-66
2022/09/18 01:28:53;;;;;;;4.05;1.85;;;10.50;99.90;;;;;;5051134;28;20181;-66
2022/09/18 01:31:28;;;;;;;3.85;1.85;;;10.50;99.90;;;;;;5050205;28;20192;-66
2022/09/18 01:34:01;;;;;;;3.33;1.70;;;10.50;99.90;;;;;;5050293;28;20201;-66
2022/09/18 01:36:33;;;;;;;2.65;1.88;;;10.50;99.90;;;;;;5049996;28;20200;-66
2022/09/18 01:39:06;;;;;;;5.78;1.95;;;10.60;99.90;;;;;;5039784;28;20650;-66
2022/09/18 01:41:37;;;;;;;1.85;1.60;;;10.60;99.90;;;;;;5045964;28;20200;-66
2022/09/18 01:44:13;;;;;;;3.00;2.00;;;10.60;99.90;;;;;;5066268;28;20196;-66
2022/09/18 01:46:44;;;;;;;2.88;1.52;;;10.60;99.90;;;;;;5050232;28;20551;-66
2022/09/18 01:49:14;;;;;;;2.25;1.52;;;10.60;99.90;;;;;;5051229;28;20223;-66
2022/09/18 01:51:52;;;;;;;5.53;1.90;;;10.60;99.90;;;;;;5050129;28;20534;-66
2022/09/18 01:54:24;;;;;;;11.88;1.60;;;10.60;99.90;;;;;;5051252;28;20726;-65
2022/09/18 01:56:57;;;;;;;2.80;1.63;;;10.70;99.90;;;;;;5049934;28;20232;-66
2022/09/18 01:59:31;;;;;;;2.00;1.60;;;10.70;99.90;;;;;;5049673;28;20684;-66
2022/09/18 02:02:13;;;;;;;3.53;1.83;;;10.60;99.90;;;;;;5068045;28;20200;-66
2022/09/18 02:04:44;;;;;;;3.00;1.75;;;10.60;99.90;;;;;;5070644;28;20196;-66
2022/09/18 02:07:18;;;;;;;3.85;1.73;;;10.60;99.90;;;;;;5054421;28;20323;-66
2022/09/18 02:09:47;;;;;;;3.88;1.48;;;10.70;99.90;;;;;;5053735;28;20195;-66
2022/09/18 02:12:19;;;;;;;2.17;1.75;;;10.60;99.90;;;;;;5071118;28;20204;-65
2022/09/18 02:14:56;;;;;;;2.47;1.40;;;10.60;99.90;;;;;;5060864;28;20197;-65
2022/09/18 02:17:49;;;;;;;8.68;1.83;;;10.60;99.90;;;;;;5034757;28;20586;-66
2022/09/18 02:20:21;;;;;;;3.67;1.70;;;10.60;99.90;;;;;;5033593;28;20640;-66
2022/09/18 02:22:52;;;;;;;8.50;1.70;;;10.60;99.90;;;;;;5035329;28;20633;-66
2022/09/18 02:25:26;;;;;;;2.50;2.00;;;10.60;99.90;;;;;;5034970;28;20204;-66
2022/09/18 02:27:56;;;;;;;6.97;1.73;;;10.60;99.90;;;;;;5051133;28;20192;-66
2022/09/18 02:30:26;;;;;;;1.90;1.80;;;10.60;99.90;;;;;;5054338;28;20557;-66
2022/09/18 02:32:56;;;;;;;2.67;1.45;;;10.60;99.90;;;;;;5053140;28;20236;-65
2022/09/18 02:35:30;;;;;;;4.15;2.03;;;10.60;99.90;;;;;;5053434;28;20208;-66
2022/09/18 02:38:04;;;;;;;4.35;1.65;;;10.50;99.90;;;;;;5053432;28;20208;-66
2022/09/18 02:40:49;;;;;;;5.65;2.25;;;10.50;99.90;;;;;;5053087;28;20529;-66
2022/09/18 02:43:30;;;;;;;4.50;2.08;;;10.50;99.90;;;;;;5053156;28;20188;-66
2022/09/18 02:46:12;;;;;;;9.73;2.45;;;10.50;99.90;;;;;;5053190;28;20189;-66
2022/09/18 02:48:49;;;;;;;3.92;1.45;;;10.50;99.90;;;;;;5052329;28;20193;-65
2022/09/18 02:51:27;;;;;;;2.55;1.65;;;10.50;99.90;;;;;;5052982;28;20193;-66
2022/09/18 02:54:01;;;;;;;3.05;1.83;;;10.50;99.90;;;;;;5052469;28;20208;-66
2022/09/18 02:56:38;;;;;;;2.92;1.52;;;10.60;99.90;;;;;;5052291;28;20228;-66
2022/09/18 02:59:11;;;;;;;5.05;1.52;;;10.60;99.90;;;;;;5053310;28;20575;-65
2022/09/18 03:01:44;;;;;;;2.90;1.48;;;10.50;99.90;;;;;;5052763;28;20215;-66
2022/09/18 03:04:14;;;;;;;7.60;2.20;;;10.50;99.90;;;;;;5052024;28;20200;-66
2022/09/18 03:07:01;;;;;;;3.40;1.58;;;10.50;99.90;;;;;;5053852;28;20201;-65
2022/09/18 03:09:31;;;;;;;6.18;3.88;;;10.50;99.90;;;;;;5052396;28;20204;-66
2022/09/18 03:11:59;;;;;;;3.05;1.67;;;10.60;99.90;;;;;;5052694;28;20212;-66
2022/09/18 03:14:26;;;;;;;6.15;1.80;;;10.60;99.90;;;;;;5051008;28;20208;-66
2022/09/18 03:16:55;;;;;;;10.18;2.10;;;10.60;99.90;;;;;;5053522;28;20200;-66
2022/09/18 03:19:23;;;;;;;4.10;2.28;;;10.60;99.90;;;;;;5053632;28;20675;-66
2022/09/18 03:21:51;;;;;;;2.85;1.48;;;10.60;99.90;;;;;;5036072;28;20212;-65
2022/09/18 03:24:24;;;;;;;3.28;1.73;;;10.60;99.90;;;;;;5052562;28;20605;-66
2022/09/18 03:26:52;;;;;;;9.57;1.80;;;10.60;99.90;;;;;;5060975;28;20193;-66
2022/09/18 03:29:22;;;;;;;3.08;1.40;;;10.50;99.90;;;;;;5052600;28;20580;-66
2022/09/18 03:31:51;;;;;;;3.58;1.88;;;10.50;99.90;;;;;;5063175;28;20237;-66
2022/09/18 03:34:20;;;;;;;2.28;1.33;;;10.50;99.90;;;;;;5034317;28;20181;-66
2022/09/18 03:36:48;;;;;;;5.03;1.45;;;10.50;99.90;;;;;;5032979;28;20211;-66
2022/09/18 03:39:19;;;;;;;2.38;1.73;;;10.50;99.90;;;;;;5032506;28;20232;-66
2022/09/18 03:41:48;;;;;;;1.83;1.73;;;10.50;99.90;;;;;;5032254;28;20661;-66
2022/09/18 03:44:15;;;;;;;4.63;2.22;;;10.50;99.90;;;;;;5042210;28;20212;-66
2022/09/18 03:46:45;;;;;;;2.65;1.42;;;10.60;99.90;;;;;;5052203;28;20207;-66
2022/09/18 03:49:13;;;;;;;1.58;1.45;;;10.60;99.90;;;;;;5069072;28;20201;-66
2022/09/18 03:51:46;;;;;;;3.00;2.03;;;10.60;99.90;;;;;;5067615;28;20208;-66
2022/09/18 03:54:14;;;;;;;1.88;1.30;;;10.60;99.90;;;;;;5053532;28;20212;-66
2022/09/18 03:56:51;;;;;;;1.75;1.65;;;10.60;99.90;;;;;;5052889;28;20674;-66
2022/09/18 03:59:39;;;;;;;2.65;1.60;;;10.60;99.90;;;;;;5031991;28;20599;-66
2022/09/18 04:02:22;;;;;;;9.18;2.20;;;10.60;99.90;;;;;;5053037;28;20204;-66
2022/09/18 04:05:09;;;;;;;2.80;1.92;;;10.60;99.90;;;;;;5034025;28;20210;-66
2022/09/18 04:07:57;;;;;;;8.10;2.30;;;10.60;99.90;;;;;;5048144;28;20209;-66
2022/09/18 04:10:56;;;;;;;2.45;1.90;;;10.60;99.90;;;;;;5032293;28;20199;-66
2022/09/18 04:13:25;;;;;;;3.15;2.20;;;10.70;99.90;;;;;;5031813;28;20656;-66
2022/09/18 04:15:59;;;;;;;3.97;2.00;;;10.60;99.90;;;;;;5030745;28;20196;-66
2022/09/18 04:18:30;;;;;;;2.05;1.95;;;10.60;99.90;;;;;;5031865;28;20204;-66
2022/09/18 04:20:59;;;;;;;5.28;2.90;;;10.70;99.90;;;;;;5041351;28;20200;-66
2022/09/18 04:23:28;;;;;;;2.63;2.20;;;10.70;99.90;;;;;;5051272;28;20685;-67
2022/09/18 04:25:58;;;;;;;2.85;2.20;;;10.70;99.90;;;;;;5050710;28;20200;-66
2022/09/18 04:28:30;;;;;;;8.85;2.47;;;10.70;99.90;;;;;;5051388;28;20243;-66
2022/09/18 04:30:59;;;;;;;4.38;2.22;;;10.70;99.90;;;;;;5033890;28;20254;-66
2022/09/18 04:33:27;;;;;;;2.75;2.30;;;10.70;99.90;;;;;;5051381;28;20236;-67
2022/09/18 04:35:56;;;;;;;2.58;2.38;;;10.70;99.90;;;;;;5042268;28;20210;-66
2022/09/18 04:38:28;;;;;;;4.65;2.70;;;10.70;99.90;;;;;;5050436;28;20650;-66
2022/09/18 04:40:59;;;;;;;2.65;2.45;;;10.70;99.90;;;;;;5034151;28;20220;-66
2022/09/18 04:43:28;;;;;;;4.70;2.33;;;10.70;99.90;;;;;;5048830;28;20206;-66
2022/09/18 04:45:56;;;;;;;6.93;2.38;;;10.70;99.90;;;;;;5067446;28;20667;-66
2022/09/18 04:48:25;;;;;;;10.10;2.92;;;10.60;99.90;;;;;;5054446;28;20201;-66
2022/09/18 04:50:54;;;;;;;4.30;2.70;;;10.60;99.90;;;;;;5030960;28;20699;-67
2022/09/18 04:53:23;;;;;;;3.38;2.70;;;10.60;99.90;;;;;;5049399;28;20201;-66
2022/09/18 04:55:51;;;;;;;2.47;2.22;;;10.70;99.90;;;;;;5051497;28;20663;-66
2022/09/18 04:58:20;;;;;;;11.20;3.17;;;10.70;99.90;;;;;;5052520;28;20205;-66
2022/09/18 05:00:53;;;;;;;5.30;3.05;;;10.60;99.90;;;;;;5058380;28;20209;-66
2022/09/18 05:03:21;;;;;;;5.15;3.30;;;10.60;99.90;;;;;;5035073;28;20208;-66
2022/09/18 05:05:51;;;;;;;4.38;3.15;;;10.60;99.90;;;;;;5030656;28;20213;-66
2022/09/18 05:08:19;;;;;;;6.25;3.15;;;10.50;99.90;;;;;;5045994;28;20196;-66
2022/09/18 05:10:47;;;;;;;5.22;2.63;;;10.50;99.90;;;;;;5050623;28;20193;-66
2022/09/18 05:13:15;;;;;;;3.13;2.83;;;10.60;99.90;;;;;;5046339;28;20192;-66
2022/09/18 05:16:02;;;;;;;5.93;2.78;;;10.50;99.90;;;;;;5048980;28;20196;-66
2022/09/18 05:18:31;;;;;;;5.65;2.65;;;10.50;99.90;;;;;;5049308;28;20189;-66
2022/09/18 05:21:03;;;;;;;3.97;2.40;;;10.50;99.90;;;;;;5049192;28;20199;-66
2022/09/18 05:23:44;;;;;;;3.50;2.45;;;10.50;99.90;;;;;;5032860;28;20261;-66
2022/09/18 05:26:32;;;;;;;5.85;2.67;;;10.50;99.90;;;;;;5048289;28;20218;-66
2022/09/18 05:29:00;;;;;;;11.02;2.90;;;10.50;99.90;;;;;;5048542;28;20197;-66
2022/09/18 05:31:30;;;;;;;4.75;2.38;;;10.50;99.90;;;;;;5048903;28;20265;-66
2022/09/18 05:33:58;;;;;;;4.45;2.90;;;10.50;99.90;;;;;;5048922;28;20219;-66
2022/09/18 05:36:26;;;;;;;5.32;2.70;;;10.50;99.90;;;;;;5048078;28;20254;-66
2022/09/18 05:38:54;;;;;;;2.92;2.60;;;10.50;99.90;;;;;;5053961;28;20206;-66
2022/09/18 05:41:23;;;;;;;5.18;2.45;;;10.50;99.90;;;;;;5032229;28;20208;-66
2022/09/18 05:43:52;;;;;;;7.15;2.80;;;10.60;99.90;;;;;;5048094;28;20254;-66
2022/09/18 05:46:20;;;;;;;2.42;2.10;;;10.60;99.90;;;;;;5048344;28;20189;-66
2022/09/18 05:48:56;;;;;;;2.85;2.65;;;10.60;99.90;;;;;;5048282;28;20188;-66
2022/09/18 05:51:25;;;;;;;4.13;2.28;;;10.70;99.90;;;;;;5048579;28;20226;-66
2022/09/18 05:53:53;;;;;;;4.90;2.80;;;10.70;99.90;;;;;;5047433;28;20203;-66
2022/09/18 05:56:27;;;;;;;2.72;2.10;;;10.70;99.90;;;;;;5046531;28;20563;-67
2022/09/18 05:58:56;;;;;;;4.70;2.75;;;10.80;99.90;;;;;;5058691;28;20564;-66
2022/09/18 06:01:25;;;;;;;3.80;2.45;;;10.80;99.90;;;;;;5044647;28;20679;-66
2022/09/18 06:04:12;;;;;;;3.88;2.25;;;10.80;99.90;;;;;;5044547;28;20215;-66
2022/09/18 06:06:52;;;;;;;4.63;2.33;;;10.70;99.90;;;;;;5032445;28;20725;-66
2022/09/18 06:09:20;;;;;;;3.13;2.80;;;10.80;99.90;;;;;;5049125;28;20205;-66
2022/09/18 06:11:49;;;;;;;3.03;2.72;;;10.80;99.90;;;;;;5046985;28;20337;-66
2022/09/18 06:14:18;;;;;;;3.47;2.63;;;10.80;99.90;;;;;;5062955;28;20254;-66
2022/09/18 06:16:47;;;;;;;2.38;2.20;;;10.90;99.90;;;;;;5045973;28;20559;-66
2022/09/18 06:19:17;;;;;;;3.65;1.98;;;11.00;99.90;;;;;;5050047;28;20609;-66
2022/09/18 06:21:47;;;;;;;2.20;1.90;;;11.00;99.90;;;;;;5044309;28;20196;-66
2022/09/18 06:24:18;;;;;;;2.85;2.08;;;10.90;99.90;;;;;;5048281;28;20199;-66
2022/09/18 06:26:57;;;;;;;9.98;2.50;;;10.90;99.90;;;;;;5031685;28;20197;-66
2022/09/18 06:29:25;;;;;;;2.10;2.00;;;10.80;99.90;;;;;;5044462;28;20216;-66
2022/09/18 06:32:03;;;;;;;3.25;1.77;;;10.80;99.90;;;;;;5047528;28;20232;-66
2022/09/18 06:34:33;;;;;;;2.10;2.00;;;10.90;99.90;;;;;;5047732;28;20300;-66
2022/09/18 06:37:05;;;;;;;4.38;2.58;;;10.90;99.90;;;;;;5042602;28;20248;-66
2022/09/18 06:39:45;;;;;;;5.15;2.55;;;10.80;99.90;;;;;;5047336;28;20718;-66
2022/09/18 06:42:33;;;;;;;12.55;2.53;;;10.90;99.90;;;;;;5050166;28;20204;-66
2022/09/18 06:45:09;;;;;;;5.00;2.65;;;10.90;99.90;;;;;;5051873;28;20702;-66
2022/09/18 06:47:37;;;;;;;4.55;1.90;;;10.90;99.90;;;;;;5040125;28;20197;-66
2022/09/18 06:50:08;;;;;;;5.35;2.30;;;10.90;99.90;;;;;;5049486;28;20205;-66
2022/09/18 06:52:36;;;;;;;2.50;2.30;;;10.90;99.90;;;;;;5052127;28;20200;-66
2022/09/18 06:55:07;;;;;;;2.75;1.65;;;10.90;99.90;;;;;;5042436;28;20208;-66
2022/09/18 06:57:35;;;;;;;6.85;2.33;;;10.90;99.90;;;;;;5047351;28;20231;-66
2022/09/18 07:00:03;;;;;;;5.05;1.98;;;10.80;99.90;;;;;;5036121;28;20220;-66
2022/09/18 07:02:37;;;;;;;3.25;1.60;;;10.90;99.90;;;;;;5051297;28;20200;-66
2022/09/18 07:05:28;;;;;;;3.10;1.98;;;10.90;99.90;;;;;;5054205;28;20199;-66
2022/09/18 07:08:00;;;;;;;3.30;1.60;;;10.90;99.90;;;;;;5052029;28;20727;-66
2022/09/18 07:10:30;;;;;;;2.10;2.00;;;10.80;99.90;;;;;;5052817;28;20203;-66
2022/09/18 07:13:01;;;;;;;7.20;2.28;;;10.90;99.90;;;;;;5068777;28;20208;-66
2022/09/18 07:15:31;;;;;;;2.90;2.20;;;10.90;99.90;;;;;;5066066;28;20213;-66
2022/09/18 07:18:00;;;;;;;4.03;1.70;;;10.90;99.90;;;;;;5068360;28;20208;-66
2022/09/18 07:20:31;;;;;;;3.65;2.05;;;10.90;99.90;;;;;;5044096;28;20212;-66
2022/09/18 07:23:01;;;;;;;3.33;1.58;;;11.00;99.90;;;;;;5051209;28;20200;-66
2022/09/18 07:25:40;;;;;;;11.43;2.22;;;11.00;99.90;;;;;;5040163;28;20214;-66
2022/09/18 07:28:11;;;;;;;1.58;1.48;;;11.00;99.90;;;;;;5053154;28;20250;-66
2022/09/18 07:30:45;;;;;;;5.07;1.95;;;11.00;99.90;;;;;;5052415;28;20211;-66
2022/09/18 07:33:13;;;;;;;2.65;1.80;;;11.00;99.90;;;;;;5052966;28;20235;-66
2022/09/18 07:35:48;;;;;;;3.65;1.70;;;11.00;99.90;;;;;;5068363;28;20200;-66
2022/09/18 07:38:20;;;;;;;5.15;2.20;;;11.10;99.90;;;;;;5052170;28;20315;-66
2022/09/18 07:40:53;;;;;;;3.13;1.95;;;11.10;99.90;;;;;;5061227;28;20228;-67
2022/09/18 07:43:30;;;;;;;5.78;2.05;;;11.20;99.90;;;;;;5043192;28;20200;-66
2022/09/18 07:45:58;;;;;;;4.05;2.00;;;11.20;99.90;;;;;;5049441;28;20215;-66
2022/09/18 07:48:26;;;;;;;5.65;4.28;;;11.30;99.90;;;;;;5052367;28;20215;-66
2022/09/18 07:50:59;;;;;;;3.42;2.50;;;11.20;99.90;;;;;;5058881;28;20243;-66
2022/09/18 07:53:28;;;;;;;5.95;2.63;;;11.20;99.90;;;;;;5051946;28;20258;-66
2022/09/18 07:55:59;;;;;;;2.47;1.80;;;11.30;99.90;;;;;;5050832;28;20220;-67
2022/09/18 07:58:27;;;;;;;1.85;1.45;;;11.30;99.90;;;;;;5051467;28;20247;-67
2022/09/18 08:01:02;;;;;;;4.95;1.70;;;11.30;99.90;;;;;;5049391;28;20227;-67
2022/09/18 08:03:31;;;;;;;5.30;1.77;;;11.30;99.90;;;;;;5029820;28;20768;-68
2022/09/18 08:06:08;;;;;;;3.65;1.35;;;11.40;99.90;;;;;;5044997;28;20627;-67
2022/09/18 08:08:36;;;;;;;4.38;1.95;;;11.60;99.90;;;;;;5043593;28;20208;-67
2022/09/18 08:11:25;;;;;;;2.70;2.15;;;11.60;99.90;;;;;;5051574;28;20178;-66
2022/09/18 08:14:09;;;;;;;4.03;1.80;;;11.60;99.90;;;;;;5051632;28;20253;-66
2022/09/18 08:16:40;;;;;;;3.75;2.22;;;11.70;99.90;;;;;;5056449;28;20217;-66
2022/09/18 08:19:13;;;;;;;4.65;2.05;;;11.80;99.90;;;;;;5064172;28;20203;-66
2022/09/18 08:22:06;;;;;;;2.00;1.80;;;11.90;99.90;;;;;;5051883;28;20220;-66
2022/09/18 08:24:34;;;;;;;4.45;1.80;;;11.80;99.90;;;;;;5051140;28;20710;-66
2022/09/18 08:27:03;;;;;;;4.47;3.03;;;11.90;99.90;;;;;;5052371;28;20218;-66
2022/09/18 08:29:32;;;;;;;6.88;2.03;;;11.90;99.90;;;;;;5050993;28;20208;-66
2022/09/18 08:32:04;;;;;;;2.85;2.20;;;12.00;99.90;;;;;;5050494;28;20225;-66
2022/09/18 08:34:32;;;;;;;1.83;1.73;;;12.00;99.90;;;;;;5055531;28;20197;-66
2022/09/18 08:37:00;;;;;;;6.28;2.22;;;11.80;99.90;;;;;;5045942;28;20212;-66
2022/09/18 08:40:03;;;;;;;5.78;1.40;;;11.80;99.90;;;;;;5052241;28;20204;-66
2022/09/18 08:42:45;;;;;;;3.00;1.40;;;11.70;99.90;;;;;;5050654;28;20221;-66
2022/09/18 08:45:32;;;;;;;4.50;1.50;;;11.80;99.90;;;;;;5050690;28;20555;-66
2022/09/18 08:48:06;;;;;;;5.45;2.10;;;11.90;99.90;;;;;;5051512;28;20188;-66
2022/09/18 08:50:42;;;;;;;9.32;2.25;;;12.10;99.90;;;;;;5050874;28;20195;-66
2022/09/18 08:53:19;;;;;;;3.67;1.65;;;12.40;99.90;;;;;;5051332;28;20185;-67
2022/09/18 08:56:10;;;;;;;7.07;2.33;;;12.70;99.90;;;;;;5050509;28;20721;-66
2022/09/18 08:59:05;;;;;;;3.23;1.37;;;12.90;99.90;;;;;;5032366;28;21140;-66
2022/09/18 09:01:42;;;;;;;3.60;1.63;;;13.10;99.90;;;;;;5030419;28;20646;-66
2022/09/18 09:04:19;;;;;;;2.43;1.40;;;13.30;99.90;;;;;;5031132;28;20947;-66
2022/09/18 09:07:02;;;;;;;3.00;1.70;;;13.60;99.90;;;;;;5048028;28;20679;-66
2022/09/18 09:09:45;;;;;;;4.27;1.63;;;13.60;99.90;;;;;;5030960;28;20635;-66
2022/09/18 09:12:37;;;;;;;3.50;1.73;;;13.60;99.90;;;;;;5045720;28;20969;-66
2022/09/18 09:15:20;;;;;;;5.47;2.07;;;13.80;99.90;;;;;;5042407;28;20654;-66
2022/09/18 09:17:56;;;;;;;2.13;1.40;;;13.70;99.90;;;;;;5045760;28;20619;-67
2022/09/18 09:20:35;;;;;;;5.60;1.47;;;13.90;99.90;;;;;;5055664;28;20616;-67
2022/09/18 09:23:06;;;;;;;5.60;1.93;;;14.10;99.90;;;;;;5045568;28;20613;-66
2022/09/18 09:25:44;;;;;;;1.50;1.40;;;14.20;99.90;;;;;;5045250;28;20627;-67
2022/09/18 09:28:28;;;;;;;12.33;2.43;;;14.00;99.90;;;;;;5032223;28;20623;-66
2022/09/18 09:31:24;;;;;;;3.80;1.53;;;13.80;99.90;;;;;;5039870;28;20662;-66
2022/09/18 09:34:16;;;;;;;3.40;2.23;;;13.90;99.90;;;;;;5044422;28;20609;-66
2022/09/18 09:37:14;;;;;;;2.88;2.20;;;13.80;99.90;;;;;;5046269;28;20669;-67
2022/09/18 09:39:47;;;;;;;3.67;1.57;;;14.10;99.90;;;;;;5043690;28;20246;-66
2022/09/18 09:42:21;;;;;;;5.60;1.90;;;14.50;99.90;;;;;;5045773;28;21017;-68
2022/09/18 09:44:54;;;;;;;5.47;1.70;;;14.70;99.90;;;;;;5047985;28;20601;-67
2022/09/18 09:47:31;;;;;;;3.33;1.43;;;14.40;99.90;;;;;;5061811;28;20588;-67
2022/09/18 09:50:18;;;;;;;2.20;1.23;;;14.50;99.90;;;;;;5047536;28;21143;-67
2022/09/18 09:52:47;;;;;;;3.33;1.37;;;14.80;99.90;;;;;;5044501;28;20611;-67
2022/09/18 09:55:21;;;;;;;4.80;1.60;;;15.00;99.90;;;;;;5043674;28;20597;-67
2022/09/18 09:58:02;;;;;;;1.93;1.37;;;15.30;99.90;;;;;;5063775;28;20654;-67
2022/09/18 10:00:38;;;;;;;2.93;1.63;;;14.80;99.90;;;;;;5048845;28;20590;-66
2022/09/18 10:03:45;;;;;;;3.97;1.60;;;14.70;99.90;;;;;;5043582;28;21231;-67
2022/09/18 10:06:32;;;;;;;2.87;1.83;;;15.10;99.90;;;;;;5048408;28;20601;-66
2022/09/18 10:09:05;;;;;;;3.13;1.67;;;15.40;99.90;;;;;;5043617;28;20920;-66
2022/09/18 10:11:37;;;;;;;8.30;2.37;;;15.50;99.90;;;;;;5048791;28;20669;-66
2022/09/18 10:14:10;;;;;;;4.50;2.27;;;15.20;99.90;;;;;;5049894;28;20612;-66
2022/09/18 10:16:43;;;;;;;2.70;2.40;;;15.50;99.90;;;;;;5049993;28;20597;-66
2022/09/18 10:19:17;;;;;;;3.27;1.83;;;15.10;99.90;;;;;;5048828;28;20602;-66
2022/09/18 10:21:46;;;;;;;3.73;1.40;;;14.90;99.90;;;;;;5051386;28;20643;-65
2022/09/18 10:24:21;;;;;;;2.87;1.53;;;15.00;99.90;;;;;;5036356;28;20585;-66
2022/09/18 10:26:55;;;;;;;3.30;2.70;;;15.10;99.90;;;;;;5037168;28;20582;-66
2022/09/18 10:29:24;;;;;;;4.13;2.30;;;15.30;99.90;;;;;;5053073;28;20587;-66
2022/09/18 10:31:59;;;;;;;2.40;1.20;;;15.30;99.90;;;;;;5052576;28;20734;-66
2022/09/18 10:34:34;;;;;;;1.93;1.73;;;15.30;99.90;;;;;;5053069;28;20605;-65
2022/09/18 10:37:02;;;;;;;1.60;1.50;;;15.30;99.90;;;;;;5069351;28;20981;-66
2022/09/18 10:39:31;;;;;;;3.63;1.63;;;15.60;99.90;;;;;;5054102;28;21162;-65
2022/09/18 10:42:07;;;;;;;1.73;1.63;;;15.70;99.90;;;;;;5069388;28;21032;-66
2022/09/18 10:44:40;;;;;;;1.40;1.30;;;15.90;99.90;;;;;;5069833;28;20599;-66
2022/09/18 10:47:23;;;;;;;2.60;1.40;;;15.60;99.90;;;;;;5068865;28;21100;-65
2022/09/18 10:49:56;;;;;;;1.83;1.40;;;15.60;99.90;;;;;;5053116;28;20620;-67
2022/09/18 10:52:30;;;;;;;1.80;1.70;;;15.80;99.90;;;;;;5052398;28;20594;-66
2022/09/18 10:55:11;;;;;;;3.03;1.57;;;16.00;99.90;;;;;;5033538;28;20912;-66
2022/09/18 10:57:44;;;;;;;1.47;1.37;;;15.70;99.90;;;;;;5032646;28;20654;-66
2022/09/18 11:00:38;;;;;;;3.80;1.50;;;15.50;99.90;;;;;;5062047;28;21169;-66
2022/09/18 11:03:37;;;;;;;1.87;1.60;;;15.70;99.90;;;;;;5050183;28;21199;-66
2022/09/18 11:06:09;;;;;;;2.30;1.50;;;15.70;99.90;;;;;;5049956;28;21182;-66
2022/09/18 11:08:45;;;;;;;2.70;1.53;;;15.90;99.90;;;;;;5047709;28;20615;-66
2022/09/18 11:11:22;;;;;;;1.77;1.60;;;16.00;99.90;;;;;;5051704;28;20614;-66
2022/09/18 11:13:56;;;;;;;2.00;1.40;;;15.80;99.90;;;;;;5050708;28;20615;-65
2022/09/18 11:16:29;;;;;;;6.40;1.90;;;15.60;99.90;;;;;;5047430;28;21021;-66
2022/09/18 11:19:05;;;;;;;4.80;1.20;;;15.60;99.90;;;;;;5049502;28;20561;-66
2022/09/18 11:21:40;;;;;;;2.80;1.57;;;15.80;99.90;;;;;;5043924;28;20577;-66
2022/09/18 11:24:21;;;;;;;4.03;1.60;;;15.70;99.90;;;;;;5062054;28;20673;-66
2022/09/18 11:26:50;;;;;;;1.93;1.47;;;15.40;99.90;;;;;;5066217;28;20606;-66
2022/09/18 11:29:23;;;;;;;2.47;1.67;;;15.50;99.90;;;;;;5051735;28;20615;-66
2022/09/18 11:31:55;;;;;;;1.80;1.43;;;15.50;99.90;;;;;;5050766;28;20651;-67
2022/09/18 11:34:30;;;;;;;5.10;1.40;;;15.90;99.90;;;;;;5063515;28;20658;-67
2022/09/18 11:37:07;;;;;;;2.37;1.60;;;15.70;99.90;;;;;;5050247;28;20603;-67
2022/09/18 11:39:40;;;;;;;3.10;1.77;;;16.00;99.90;;;;;;5050141;28;21124;-67
2022/09/18 11:42:12;;;;;;;1.67;1.50;;;16.00;99.90;;;;;;5037284;28;20703;-67
2022/09/18 11:44:41;;;;;;;2.00;1.43;;;16.10;99.90;;;;;;5054229;28;20615;-67
2022/09/18 11:47:28;;;;;;;2.40;1.87;;;15.90;99.90;;;;;;5052520;28;21246;-67
2022/09/18 11:50:10;;;;;;;3.27;1.90;;;16.20;99.90;;;;;;5035376;28;20615;-66
2022/09/18 11:52:43;;;;;;;1.63;1.53;;;16.30;99.90;;;;;;5051032;28;20634;-66
2022/09/18 11:55:19;;;;;;;3.23;1.63;;;16.50;99.90;;;;;;5067857;28;20607;-66
2022/09/18 11:57:51;;;;;;;2.17;1.97;;;16.10;99.90;;;;;;5050966;28;20662;-66
2022/09/18 12:00:21;;;;;;;2.33;2.13;;;15.90;99.90;;;;;;5041428;28;20640;-66
2022/09/18 12:03:05;;;;;;;2.57;1.40;;;15.70;99.90;;;;;;5051144;28;20986;-66
2022/09/18 12:05:51;;;;;;;2.90;1.87;;;15.80;99.90;;;;;;5067947;28;20615;-66
2022/09/18 12:08:28;;;;;;;1.93;1.40;;;15.90;99.90;;;;;;5067204;28;20655;-66
2022/09/18 12:11:12;;;;;;;3.20;1.77;;;15.90;99.90;;;;;;5049164;28;20643;-65
2022/09/18 12:13:48;;;;;;;2.13;1.80;;;15.90;99.90;;;;;;5050759;28;21187;-65
2022/09/18 12:16:23;;;;;;;1.73;1.60;;;15.90;99.90;;;;;;5051238;28;20684;-65
2022/09/18 12:19:00;;;;;;;4.03;2.73;;;15.90;99.90;;;;;;5048100;28;20614;-66
2022/09/18 12:21:43;;;;;;;3.13;2.43;;;16.10;99.90;;;;;;5066487;28;20629;-65
2022/09/18 12:24:14;;;;;;;2.50;2.30;;;16.10;99.90;;;;;;5047378;28;20652;-65
2022/09/18 12:27:04;;;;;;;2.00;1.90;;;15.80;99.90;;;;;;5057387;28;20591;-65
2022/09/18 12:30:00;;;;;;;2.30;1.60;;;15.70;99.90;;;;;;5066618;28;20623;-65
2022/09/18 12:32:59;;;;;;;1.97;1.60;;;15.50;99.90;;;;;;5048262;28;20648;-65
2022/09/18 12:35:37;;;;;;;2.73;2.57;;;15.60;99.90;;;;;;5065241;28;20617;-65
2022/09/18 12:38:17;;;;;;;2.70;1.67;;;15.60;99.90;;;;;;5046831;28;20590;-65
2022/09/18 12:41:05;;;;;;;4.00;2.37;;;15.50;99.90;;;;;;5047084;28;20602;-65
2022/09/18 12:44:01;;;;;;;1.70;1.50;;;15.50;99.90;;;;;;5041612;28;20735;-65
2022/09/18 12:46:45;;;;;;;4.07;1.70;;;15.20;99.90;;;;;;5036738;28;20618;-65
2022/09/18 12:49:41;;;;;;;1.60;1.50;;;15.10;99.90;;;;;;5051620;28;20566;-65
2022/09/18 12:52:41;;;;;;;1.70;1.60;;;15.10;99.90;;;;;;5042064;28;20950;-65
2022/09/18 12:55:25;;;;;;;2.90;1.67;;;15.00;99.90;;;;;;5050878;28;20586;-66
2022/09/18 12:58:06;;;;;;;1.97;1.80;;;15.20;99.90;;;;;;5036364;28;20656;-65
2022/09/18 13:00:37;;;;;;;1.73;1.63;;;15.30;99.90;;;;;;5051322;28;20621;-66
2022/09/18 13:03:12;;;;;;;2.93;1.67;;;15.50;99.90;;;;;;5050753;28;20646;-65
2022/09/18 13:05:43;;;;;;;3.27;1.93;;;15.60;99.90;;;;;;5042419;28;20614;-65
2022/09/18 13:08:16;;;;;;;1.87;1.67;;;15.60;99.90;;;;;;5032261;28;20643;-65
2022/09/18 13:10:48;;;;;;;4.13;1.83;;;15.70;99.90;;;;;;5039138;28;20603;-65
2022/09/18 13:13:22;;;;;;;2.03;1.80;;;15.70;99.90;;;;;;5051473;28;20631;-65
2022/09/18 13:15:54;;;;;;;2.93;1.60;;;15.40;99.90;;;;;;5051495;28;20595;-65
2022/09/18 13:18:33;;;;;;;1.60;1.50;;;15.40;99.90;;;;;;5046172;28;20619;-65
2022/09/18 13:21:05;;;;;;;3.13;1.47;;;15.40;99.90;;;;;;5051399;28;20579;-66
2022/09/18 13:23:36;;;;;;;2.63;1.60;;;15.40;99.90;;;;;;5044327;28;21008;-65
2022/09/18 13:26:11;;;;;;;3.00;1.70;;;15.40;99.90;;;;;;5046634;28;20583;-65